Search for airport 
image banner adimage banner adimage banner ad
image banner ad

S51 - Andy Mc Beth

Located in Klamath Glen, United States

ICAO - S51, IATA -

Data provided by Airmate  

General information

Coordinates: N41°30'43" W123°59'44"
Elevation is 42 feet MSL.
Magnetic variation is 18° East
View others Airports in California

Operational data

Special qualification required
Current time UTC:
Current local time:
Weather at : KCEC - Jack Mc Namara Field ( 36 km )
METAR: KCEC 260856Z AUTO 15004KT 8SM OVC015 14/11 A3002 RMK AO2 SLP166 T01390111 51003
TAF: KCEC 260540Z 2606/2706 16005KT P6SM OVC014 FM261000 17004KT P6SM OVC009 TEMPO 2612/2616 5SM BR OVC006 FM261800 16006KT P6SM OVC010 FM262100 17010KT P6SM SCT015 FM270400 17012KT P6SM -RA SCT015 OVC040
View NOTAMs / SUP AIP / TFR affecting this airport [VIEW]
Communications frequencies: [VIEW]

Runways:

RWY identifierQFULength (ft)Width (ft)SurfaceLDA (ft)
11240050ASPH
29240050ASPH

Airport contact information

Address: Klamath Glen United States

Satellite view of S51